createdAt,value
2023-04-19T00:02:22.599Z,99328.31
2023-04-19T00:04:49.592Z,99356.41
2023-04-19T00:07:18.626Z,99360.06
2023-04-19T00:09:45.411Z,99360.28
2023-04-19T00:12:15.488Z,99367.00
2023-04-19T00:14:42.135Z,99351.06
2023-04-19T00:17:09.072Z,99365.38
2023-04-19T00:19:35.872Z,99353.34
2023-04-19T00:22:02.451Z,99358.28
2023-04-19T00:24:32.229Z,99355.81
2023-04-19T00:26:59.634Z,99348.03
2023-04-19T00:29:26.457Z,99353.28
2023-04-19T00:31:53.262Z,99325.59
2023-04-19T00:34:19.928Z,99337.16
2023-04-19T00:36:46.876Z,99314.50
2023-04-19T00:39:13.778Z,99342.13
2023-04-19T00:41:40.586Z,99318.53
2023-04-19T00:44:07.190Z,99346.88
2023-04-19T00:46:33.914Z,99342.00
2023-04-19T00:49:01.141Z,99348.25
2023-04-19T00:51:27.897Z,99345.56
2023-04-19T00:53:54.638Z,99341.38
2023-04-19T00:56:22.792Z,99345.72
2023-04-19T00:58:49.770Z,99328.66
2023-04-19T01:01:17.426Z,99343.66
2023-04-19T01:03:46.249Z,99343.84
2023-04-19T01:06:13.396Z,99350.88
2023-04-19T01:08:40.343Z,99340.47
2023-04-19T01:11:08.260Z,99333.47
2023-04-19T01:13:37.888Z,99311.69
2023-04-19T01:16:04.998Z,99305.84
2023-04-19T01:18:37.495Z,99330.50
2023-04-19T01:21:04.495Z,99295.09
2023-04-19T01:23:31.327Z,99308.66
2023-04-19T01:25:57.932Z,99310.72
2023-04-19T01:28:24.715Z,99329.59
2023-04-19T01:30:51.377Z,99331.56
2023-04-19T01:33:18.135Z,99324.00
2023-04-19T01:35:44.868Z,99325.13
2023-04-19T01:38:15.015Z,99308.22
2023-04-19T01:40:41.695Z,99351.41
2023-04-19T01:43:08.688Z,99335.06
2023-04-19T01:45:36.358Z,99329.13
2023-04-19T01:48:04.877Z,99339.47
2023-04-19T01:50:32.139Z,99335.13
2023-04-19T01:52:59.453Z,99311.28
2023-04-19T01:55:26.420Z,99337.19
2023-04-19T01:57:54.692Z,99309.28
2023-04-19T02:00:21.758Z,99326.59
2023-04-19T02:02:49.258Z,99335.94
2023-04-19T02:05:16.279Z,99345.59
2023-04-19T02:07:42.922Z,99336.25
2023-04-19T02:10:12.812Z,99350.16
2023-04-19T02:12:40.285Z,99324.19
2023-04-19T02:15:13.115Z,99345.00
2023-04-19T02:17:40.702Z,99367.50
2023-04-19T02:20:11.253Z,99347.63
2023-04-19T02:22:38.023Z,99361.22
2023-04-19T02:25:05.642Z,99361.28
2023-04-19T02:27:32.327Z,99360.50
2023-04-19T02:29:58.999Z,99362.50
2023-04-19T02:32:25.613Z,99365.84
2023-04-19T02:34:52.386Z,99367.53
2023-04-19T02:37:19.059Z,99369.31
2023-04-19T02:39:53.476Z,99370.28
2023-04-19T02:42:20.193Z,99370.72
2023-04-19T02:44:46.870Z,99369.25
2023-04-19T02:47:13.498Z,99352.16
2023-04-19T02:49:41.631Z,99381.97
2023-04-19T02:52:08.912Z,99396.25
2023-04-19T02:54:35.660Z,99396.50
2023-04-19T02:57:02.342Z,99398.44
2023-04-19T02:59:28.969Z,99421.72
2023-04-19T03:02:01.294Z,99423.25
2023-04-19T03:04:29.203Z,99406.59
2023-04-19T03:06:55.927Z,99416.91
2023-04-19T03:09:22.609Z,99435.44
2023-04-19T03:11:56.089Z,99431.13
2023-04-19T03:17:21.046Z,99425.16
2023-04-19T03:19:47.652Z,99409.94
2023-04-19T03:22:14.442Z,99398.41
2023-04-19T03:24:41.103Z,99370.38
2023-04-19T03:27:09.117Z,99390.97
2023-04-19T03:29:35.785Z,99360.03
2023-04-19T03:32:02.468Z,99358.75
2023-04-19T03:34:29.192Z,99344.59
2023-04-19T03:36:56.100Z,99353.34
2023-04-19T03:39:29.234Z,99343.09
2023-04-19T03:41:55.863Z,99329.78
2023-04-19T03:44:22.585Z,99329.06
2023-04-19T03:46:49.311Z,99324.75
2023-04-19T03:49:42.247Z,99320.94
2023-04-19T03:52:12.270Z,99311.75
2023-04-19T03:54:38.879Z,99308.75
2023-04-19T03:57:06.021Z,99311.84
2023-04-19T03:59:32.875Z,99319.50
2023-04-19T04:01:59.988Z,99310.50
2023-04-19T04:04:26.844Z,99272.81
2023-04-19T04:06:53.626Z,99313.25
2023-04-19T04:09:20.315Z,99319.78
2023-04-19T04:11:47.146Z,99310.44
2023-04-19T04:14:14.104Z,99309.59
2023-04-19T04:16:41.799Z,99316.47
2023-04-19T04:19:08.513Z,99302.63
2023-04-19T04:21:35.151Z,99286.31
2023-04-19T04:24:04.659Z,99280.44
2023-04-19T04:26:31.536Z,99278.47
2023-04-19T04:28:58.223Z,99263.81
2023-04-19T04:31:24.854Z,99277.81
2023-04-19T04:33:53.671Z,99286.09
2023-04-19T04:36:20.664Z,99272.06
2023-04-19T04:38:47.360Z,99290.19
2023-04-19T04:41:14.020Z,99267.03
2023-04-19T04:43:40.714Z,99266.47
2023-04-19T04:46:07.366Z,99262.06
2023-04-19T04:48:34.058Z,99270.56
2023-04-19T04:51:00.743Z,99271.53
2023-04-19T04:53:27.737Z,99302.38
2023-04-19T04:55:54.729Z,99308.91
2023-04-19T04:58:21.419Z,99296.34
2023-04-19T05:00:49.154Z,99334.31
2023-04-19T05:03:16.641Z,99333.31
2023-04-19T05:05:45.089Z,99313.91
2023-04-19T05:08:12.157Z,99345.09
2023-04-19T05:10:38.986Z,99356.59
2023-04-19T05:13:05.665Z,99345.50
2023-04-19T05:15:32.699Z,99319.53
2023-04-19T05:17:59.494Z,99330.69
2023-04-19T05:20:26.302Z,99314.31
2023-04-19T05:22:58.630Z,99330.38
2023-04-19T05:25:25.491Z,99325.28
2023-04-19T05:27:52.293Z,99329.25
2023-04-19T05:30:19.138Z,99319.19
2023-04-19T05:32:46.200Z,99335.50
2023-04-19T05:35:13.489Z,99324.44
2023-04-19T05:37:41.780Z,99311.78
2023-04-19T05:40:11.872Z,99311.94
2023-04-19T05:42:38.818Z,99298.31
2023-04-19T05:45:07.353Z,99320.22
2023-04-19T05:47:34.249Z,99317.34
2023-04-19T05:50:01.135Z,99312.22
2023-04-19T05:52:27.917Z,99321.94
2023-04-19T05:54:55.582Z,99314.75
2023-04-19T05:57:22.741Z,99327.28
2023-04-19T05:59:49.548Z,99281.56
2023-04-19T06:02:16.558Z,99310.38
2023-04-19T06:04:43.724Z,99305.41
2023-04-19T06:07:21.686Z,99312.84
2023-04-19T06:09:57.881Z,99298.13
2023-04-19T06:12:24.623Z,99313.44
2023-04-19T06:14:52.209Z,99293.03
2023-04-19T06:17:23.615Z,99304.34
2023-04-19T06:19:51.587Z,99310.75
2023-04-19T06:22:18.378Z,99296.25
2023-04-19T06:24:46.230Z,99279.38
2023-04-19T06:27:13.156Z,99310.91
2023-04-19T06:29:40.138Z,99324.97
2023-04-19T06:32:06.991Z,99313.97
2023-04-19T06:34:33.857Z,99312.00
2023-04-19T06:37:00.642Z,99309.94
2023-04-19T06:39:27.937Z,99316.28
2023-04-19T06:41:54.677Z,99308.81
2023-04-19T06:44:21.369Z,99312.78
2023-04-19T06:46:48.250Z,99314.72
2023-04-19T06:49:14.902Z,99325.88
2023-04-19T06:51:41.873Z,99318.34
2023-04-19T06:54:08.594Z,99311.22
2023-04-19T06:56:45.615Z,99321.19
2023-04-19T06:59:14.126Z,99318.72
2023-04-19T07:01:41.473Z,99305.00
2023-04-19T07:04:09.099Z,99321.34
2023-04-19T07:06:36.336Z,99308.47
2023-04-19T07:09:04.289Z,99275.75
2023-04-19T07:11:31.396Z,99305.66
2023-04-19T07:13:58.376Z,99311.16
2023-04-19T07:16:25.169Z,99297.22
2023-04-19T07:18:51.899Z,99305.81
2023-04-19T07:21:18.981Z,99291.53
2023-04-19T07:23:45.978Z,99291.00
2023-04-19T07:26:13.037Z,99269.81
2023-04-19T07:28:40.558Z,99286.38
2023-04-19T07:31:07.384Z,99281.72
2023-04-19T07:33:34.140Z,99307.03
2023-04-19T07:36:00.825Z,99296.13
2023-04-19T07:38:27.518Z,99273.41
2023-04-19T07:40:54.171Z,99289.72
2023-04-19T07:43:20.914Z,99294.50
2023-04-19T07:45:47.606Z,99275.34
2023-04-19T07:48:14.321Z,99271.25
2023-04-19T07:50:41.157Z,99276.75
2023-04-19T07:53:07.785Z,99272.41
2023-04-19T07:55:34.479Z,99293.13
2023-04-19T07:58:01.758Z,99282.50
2023-04-19T08:00:30.056Z,99271.78
2023-04-19T08:02:57.712Z,99287.03
2023-04-19T08:05:24.605Z,99276.06
2023-04-19T08:07:52.267Z,99275.31
2023-04-19T08:10:19.906Z,99257.34
2023-04-19T08:13:03.651Z,99269.66
2023-04-19T08:18:01.889Z,99272.25
2023-04-19T08:20:28.612Z,99279.66
2023-04-19T08:22:55.753Z,99276.06
2023-04-19T08:25:26.773Z,99286.22
2023-04-19T08:27:53.451Z,99264.94
2023-04-19T08:30:20.768Z,99248.03
2023-04-19T08:32:47.860Z,99257.53
2023-04-19T08:35:14.715Z,99246.25
2023-04-19T08:37:41.364Z,99226.28
2023-04-19T08:40:08.649Z,99236.28
2023-04-19T08:42:37.150Z,99242.72
2023-04-19T08:47:51.919Z,99246.13
2023-04-19T08:50:32.548Z,99245.72
2023-04-19T08:53:16.446Z,99246.97
2023-04-19T08:56:08.768Z,99248.25
2023-04-19T08:58:57.058Z,99216.84
2023-04-19T09:01:34.793Z,99219.06
2023-04-19T09:04:26.068Z,99224.03
2023-04-19T09:06:53.086Z,99226.88
2023-04-19T09:09:38.699Z,99215.25
2023-04-19T09:12:18.638Z,99223.94
2023-04-19T09:17:17.173Z,99210.63
2023-04-19T09:19:48.436Z,99216.63
2023-04-19T09:22:15.406Z,99219.31
2023-04-19T09:27:12.493Z,99209.34
2023-04-19T09:29:39.801Z,99200.16
2023-04-19T09:32:06.801Z,99208.75
2023-04-19T09:34:33.511Z,99197.56
2023-04-19T09:37:25.042Z,99188.06
2023-04-19T09:40:00.455Z,99197.88
2023-04-19T09:47:46.153Z,99192.19
2023-04-19T09:50:22.700Z,99182.91
2023-04-19T09:52:53.121Z,99187.75
2023-04-19T09:57:50.044Z,99189.69
2023-04-19T10:00:17.007Z,99190.88
2023-04-19T10:02:45.499Z,99183.44
2023-04-19T10:05:22.556Z,99171.75
2023-04-19T10:07:50.214Z,99196.97
2023-04-19T10:10:20.977Z,99182.69
2023-04-19T10:13:07.547Z,99184.88
2023-04-19T10:15:49.938Z,99180.50
2023-04-19T10:18:18.051Z,99186.41
2023-04-19T10:21:00.181Z,99180.03
2023-04-19T10:23:27.443Z,99179.06
2023-04-19T10:25:58.052Z,99184.16
2023-04-19T10:28:25.710Z,99197.09
2023-04-19T10:30:54.492Z,99188.19
2023-04-19T10:33:28.746Z,99184.53
2023-04-19T10:35:59.511Z,99204.41
2023-04-19T10:38:44.713Z,99177.66
2023-04-19T10:41:17.160Z,99169.47
2023-04-19T10:43:58.793Z,99196.53
2023-04-19T10:46:26.350Z,99200.88
2023-04-19T10:49:06.330Z,99200.72
2023-04-19T10:51:36.445Z,99189.41
2023-04-19T10:54:07.719Z,99189.38
2023-04-19T10:56:34.680Z,99199.44
2023-04-19T10:59:13.611Z,99191.47
2023-04-19T11:01:45.364Z,99187.53
2023-04-19T11:04:13.147Z,99200.28
2023-04-19T11:06:52.693Z,99205.34
2023-04-19T11:09:27.190Z,99178.16
2023-04-19T11:11:57.548Z,99208.34
2023-04-19T11:14:24.402Z,99190.41
2023-04-19T11:16:51.318Z,99206.03
2023-04-19T11:19:19.171Z,99204.03
2023-04-19T11:21:46.953Z,99186.53
2023-04-19T11:24:16.353Z,99204.38
2023-04-19T11:26:48.866Z,99188.47
2023-04-19T11:29:15.670Z,99206.22
2023-04-19T11:31:49.197Z,99202.28
2023-04-19T11:34:16.460Z,99211.91
2023-04-19T11:36:51.459Z,99187.22
2023-04-19T11:39:18.923Z,99208.31
2023-04-19T11:41:47.405Z,99213.44
2023-04-19T11:44:20.298Z,99197.03
2023-04-19T11:47:03.416Z,99217.06
2023-04-19T11:49:31.939Z,99221.31
2023-04-19T11:52:00.565Z,99202.38
2023-04-19T11:54:27.719Z,99223.22
2023-04-19T11:57:03.684Z,99202.81
2023-04-19T11:59:32.277Z,99214.00
2023-04-19T12:02:10.547Z,99240.91
2023-04-19T12:04:38.562Z,99237.81
2023-04-19T12:07:06.806Z,99252.53
2023-04-19T12:09:35.438Z,99252.78
2023-04-19T12:12:02.303Z,99259.22
2023-04-19T12:14:30.518Z,99226.69
2023-04-19T12:17:13.240Z,99264.22
2023-04-19T12:19:45.440Z,99265.22
2023-04-19T12:22:14.717Z,99265.13
2023-04-19T12:24:41.749Z,99269.47
2023-04-19T12:27:09.204Z,99286.78
2023-04-19T12:29:38.322Z,99276.19
2023-04-19T12:32:06.347Z,99266.59
2023-04-19T12:34:33.346Z,99282.19
2023-04-19T12:37:00.180Z,99285.63
2023-04-19T12:39:27.072Z,99289.94
2023-04-19T12:41:53.695Z,99301.03
2023-04-19T12:44:25.766Z,99308.03
2023-04-19T12:46:55.337Z,99337.88
2023-04-19T12:49:22.012Z,99349.69
2023-04-19T12:51:48.822Z,99359.28
2023-04-19T12:54:16.269Z,99365.59
2023-04-19T12:56:43.125Z,99383.63
2023-04-19T12:59:09.846Z,99386.81
2023-04-19T13:01:36.610Z,99404.03
2023-04-19T13:04:03.787Z,99436.56
2023-04-19T13:06:31.319Z,99415.22
2023-04-19T13:09:01.227Z,99415.19
2023-04-19T13:11:28.363Z,99432.59
2023-04-19T13:13:55.085Z,99428.00
2023-04-19T13:16:22.851Z,99463.34
2023-04-19T13:18:49.599Z,99451.59
2023-04-19T13:21:16.372Z,99470.19
2023-04-19T13:23:45.009Z,99478.28
2023-04-19T13:26:14.539Z,99459.00
2023-04-19T13:28:42.515Z,99486.06
2023-04-19T13:31:09.526Z,99489.09
2023-04-19T13:33:38.869Z,99503.84
2023-04-19T13:36:05.867Z,99521.91
2023-04-19T13:38:32.596Z,99544.28
2023-04-19T13:55:53.211Z,99566.50
2023-04-19T13:58:19.951Z,99582.88
2023-04-19T14:00:48.278Z,99593.34
2023-04-19T14:03:15.233Z,99589.66
2023-04-19T14:05:41.960Z,99590.31
2023-04-19T14:08:08.717Z,99596.22
2023-04-19T14:10:36.419Z,99610.75
2023-04-19T14:13:03.482Z,99629.59
2023-04-19T14:15:30.075Z,99621.28
2023-04-19T14:17:56.750Z,99643.28
2023-04-19T14:20:23.765Z,99640.91
2023-04-19T14:22:50.504Z,99604.16
2023-04-19T14:25:18.324Z,99630.28
2023-04-19T14:27:45.209Z,99612.91
2023-04-19T14:30:12.523Z,99582.69
2023-04-19T14:32:39.453Z,99566.41
2023-04-19T14:35:08.452Z,99563.16
2023-04-19T14:37:35.649Z,99559.13
2023-04-19T14:40:02.551Z,99552.19
2023-04-19T14:42:29.309Z,99532.06
2023-04-19T14:44:58.052Z,99520.09
2023-04-19T14:47:24.748Z,99528.78
2023-04-19T14:49:51.389Z,99501.38
2023-04-19T14:52:18.022Z,99519.84
2023-04-19T14:54:44.804Z,99510.34
2023-04-19T14:57:12.165Z,99493.69
2023-04-19T14:59:38.933Z,99472.91
2023-04-19T15:02:05.961Z,99491.84
2023-04-19T15:04:38.197Z,99473.47
2023-04-19T15:07:06.008Z,99476.22
2023-04-19T15:09:32.700Z,99424.84
2023-04-19T15:11:59.379Z,99447.38
2023-04-19T15:14:26.230Z,99430.31
2023-04-19T15:16:52.935Z,99448.13
2023-04-19T15:19:21.877Z,99437.78
2023-04-19T15:21:48.573Z,99439.47
2023-04-19T15:24:15.380Z,99419.97
2023-04-19T15:26:44.128Z,99432.50
2023-04-19T15:29:11.143Z,99410.22
2023-04-19T15:31:37.873Z,99429.88
2023-04-19T15:34:05.445Z,99396.91
2023-04-19T15:36:32.218Z,99382.03
2023-04-19T15:38:59.249Z,99381.56
2023-04-19T15:41:26.081Z,99349.41
2023-04-19T15:43:52.975Z,99365.09
2023-04-19T15:46:19.857Z,99348.84
2023-04-19T15:48:48.511Z,99361.25
2023-04-19T15:51:15.696Z,99369.72
2023-04-19T15:53:43.024Z,99400.09
2023-04-19T15:56:10.576Z,99400.63
2023-04-19T15:58:37.351Z,99404.00
2023-04-19T16:01:04.024Z,99394.25
2023-04-19T16:03:31.013Z,99409.94
2023-04-19T16:05:57.957Z,99400.44
2023-04-19T16:08:24.660Z,99383.00
2023-04-19T16:10:51.544Z,99434.72
2023-04-19T16:13:18.318Z,99420.91
2023-04-19T16:15:45.313Z,99415.56
2023-04-19T16:18:15.400Z,99432.19
2023-04-19T16:20:42.142Z,99430.56
2023-04-19T16:23:08.870Z,99436.59
2023-04-19T16:25:35.731Z,99423.16
2023-04-19T16:28:02.401Z,99441.88
2023-04-19T16:30:29.055Z,99438.38
2023-04-19T16:32:56.560Z,99427.09
2023-04-19T16:35:24.466Z,99424.00
2023-04-19T16:37:51.402Z,99420.44
2023-04-19T16:40:18.022Z,99440.81
2023-04-19T16:42:44.743Z,99427.75
2023-04-19T16:45:11.450Z,99432.94
2023-04-19T16:47:38.406Z,99435.66
2023-04-19T16:50:06.589Z,99440.06
2023-04-19T16:52:34.761Z,99418.34
2023-04-19T16:55:03.798Z,99441.91
2023-04-19T16:57:31.710Z,99469.38
2023-04-19T16:59:58.542Z,99459.47
2023-04-19T17:02:25.503Z,99465.16
2023-04-19T17:04:52.533Z,99478.31
2023-04-19T17:07:19.385Z,99471.78
2023-04-19T17:09:46.804Z,99480.25
2023-04-19T17:12:13.711Z,99477.47
2023-04-19T17:14:40.742Z,99485.84
2023-04-19T17:17:07.595Z,99477.03
2023-04-19T17:19:34.273Z,99486.06
2023-04-19T17:22:05.438Z,99481.03
2023-04-19T17:24:33.272Z,99480.41
2023-04-19T17:27:00.365Z,99491.91
2023-04-19T17:29:27.515Z,99518.50
2023-04-19T17:31:54.405Z,99526.22
2023-04-19T17:34:21.262Z,99538.72
2023-04-19T17:36:47.991Z,99542.28
2023-04-19T17:39:14.687Z,99548.72
2023-04-19T17:41:45.124Z,99546.25
2023-04-19T17:44:14.960Z,99558.06
2023-04-19T17:46:41.953Z,99581.16
2023-04-19T17:49:09.163Z,99556.34
2023-04-19T17:51:35.893Z,99565.28
2023-04-19T17:54:10.689Z,99566.63
2023-04-19T17:56:37.396Z,99572.63
2023-04-19T17:59:04.276Z,99548.13
2023-04-19T18:01:32.265Z,99519.72
2023-04-19T18:03:59.117Z,99511.31
2023-04-19T18:06:26.096Z,99499.72
2023-04-19T18:08:52.746Z,99494.72
2023-04-19T18:11:19.816Z,99493.72
2023-04-19T18:13:46.584Z,99499.22
2023-04-19T18:16:13.725Z,99485.28
2023-04-19T18:18:41.922Z,99497.94
2023-04-19T18:21:09.751Z,99500.88
2023-04-19T18:24:00.071Z,99498.09
2023-04-19T18:26:55.175Z,99512.09
2023-04-19T18:29:24.010Z,99502.16
2023-04-19T18:31:50.970Z,99524.28
2023-04-19T18:34:44.426Z,99543.69
2023-04-19T18:37:27.388Z,99553.63
2023-04-19T18:40:03.203Z,99556.44
2023-04-19T18:42:30.448Z,99571.69
2023-04-19T18:44:57.038Z,99603.44
2023-04-19T18:47:26.433Z,99581.91
2023-04-19T18:50:04.552Z,99632.25
2023-04-19T18:52:33.167Z,99616.47
2023-04-19T18:54:59.930Z,99655.06
2023-04-19T18:57:33.322Z,99662.56
2023-04-19T19:00:02.087Z,99678.53
2023-04-19T19:02:29.180Z,99676.25
2023-04-19T19:04:58.441Z,99692.13
2023-04-19T19:07:36.096Z,99695.13
2023-04-19T19:10:16.978Z,99673.50
2023-04-19T19:12:47.653Z,99718.38
2023-04-19T19:15:14.475Z,99704.91
2023-04-19T19:17:41.154Z,99719.84
2023-04-19T19:20:08.495Z,99684.53
2023-04-19T19:22:35.091Z,99695.81
2023-04-19T19:25:01.973Z,99710.69
2023-04-19T19:27:29.329Z,99697.44
2023-04-19T19:29:56.119Z,99689.72
2023-04-19T19:32:23.071Z,99650.63
2023-04-19T19:34:56.293Z,99664.34
2023-04-19T19:37:27.871Z,99667.03
2023-04-19T19:39:56.454Z,99677.25
2023-04-19T19:42:23.546Z,99652.72
2023-04-19T19:44:54.499Z,99658.91
2023-04-19T19:47:22.482Z,99637.56
2023-04-19T19:50:31.571Z,99643.31
2023-04-19T19:52:36.476Z,99637.91
2023-04-19T19:55:03.324Z,99644.94
2023-04-19T19:58:16.396Z,99645.44
2023-04-19T20:00:42.005Z,99654.41
2023-04-19T20:03:06.659Z,99638.91
2023-04-19T20:05:34.193Z,99640.69
2023-04-19T20:08:12.956Z,99653.06
2023-04-19T20:10:42.477Z,99640.50
2023-04-19T20:13:09.405Z,99628.63
2023-04-19T20:15:37.835Z,99610.56
2023-04-19T20:18:05.160Z,99575.63
2023-04-19T20:20:32.104Z,99602.78
2023-04-19T20:22:58.866Z,99603.38
2023-04-19T20:25:25.734Z,99573.47
2023-04-19T20:27:52.532Z,99546.63
2023-04-19T20:30:19.765Z,99576.50
2023-04-19T20:32:48.499Z,99570.63
2023-04-19T20:35:15.189Z,99572.69
2023-04-19T20:37:42.020Z,99591.66
2023-04-19T20:40:14.555Z,99609.91
2023-04-19T20:42:41.896Z,99613.47
2023-04-19T20:45:13.016Z,99588.72
2023-04-19T20:47:40.166Z,99593.00
2023-04-19T20:50:08.172Z,99601.00
2023-04-19T20:52:35.122Z,99590.91
2023-04-19T20:55:01.977Z,99618.34
2023-04-19T20:57:28.669Z,99602.78
2023-04-19T20:59:55.385Z,99558.41
2023-04-19T21:02:22.152Z,99575.53
2023-04-19T21:04:48.907Z,99580.72
2023-04-19T21:07:15.565Z,99591.91
2023-04-19T21:09:42.364Z,99591.19
2023-04-19T21:12:09.184Z,99612.00
2023-04-19T21:14:36.098Z,99595.50
2023-04-19T21:17:03.733Z,99600.69
2023-04-19T21:19:30.649Z,99578.59
2023-04-19T21:21:58.340Z,99583.56
2023-04-19T21:24:25.072Z,99574.06
2023-04-19T21:26:51.694Z,99585.31
2023-04-19T21:29:18.545Z,99592.97
2023-04-19T21:31:45.576Z,99592.19
2023-04-19T21:34:12.243Z,99560.47
2023-04-19T21:36:38.881Z,99582.50
2023-04-19T21:39:05.510Z,99581.66
2023-04-19T21:41:32.120Z,99550.69
2023-04-19T21:43:58.787Z,99560.06
2023-04-19T21:46:25.516Z,99578.22
2023-04-19T21:48:53.610Z,99570.25
2023-04-19T21:51:22.321Z,99550.97
2023-04-19T21:53:48.997Z,99553.69
2023-04-19T21:56:15.703Z,99563.19
2023-04-19T21:58:42.300Z,99554.28
2023-04-19T22:01:10.192Z,99551.06
2023-04-19T22:03:37.545Z,99553.69
2023-04-19T22:06:04.966Z,99531.28
2023-04-19T22:08:33.030Z,99539.91
2023-04-19T22:11:00.527Z,99532.38
2023-04-19T22:13:28.463Z,99529.41
2023-04-19T22:15:57.247Z,99508.53
2023-04-19T22:18:24.201Z,99526.47
2023-04-19T22:20:52.253Z,99507.19
2023-04-19T22:23:19.263Z,99538.81
2023-04-19T22:25:46.053Z,99525.28
2023-04-19T22:28:12.880Z,99539.69
2023-04-19T22:30:39.672Z,99538.25
2023-04-19T22:33:06.724Z,99518.84
2023-04-19T22:35:33.430Z,99530.97
2023-04-19T22:38:00.084Z,99543.13
2023-04-19T22:40:26.783Z,99554.28
2023-04-19T22:42:53.454Z,99542.34
2023-04-19T22:45:20.157Z,99536.97
2023-04-19T22:47:46.942Z,99510.19
2023-04-19T22:50:13.770Z,99542.53
2023-04-19T22:52:41.042Z,99548.78
2023-04-19T22:55:08.091Z,99542.91
2023-04-19T22:57:34.785Z,99522.00
2023-04-19T23:00:01.516Z,99523.50
2023-04-19T23:02:28.401Z,99539.84
2023-04-19T23:04:55.277Z,99539.59
2023-04-19T23:07:22.270Z,99524.09
2023-04-19T23:09:49.869Z,99476.50
2023-04-19T23:12:17.537Z,99521.97
2023-04-19T23:14:44.265Z,99521.47
2023-04-19T23:17:10.916Z,99517.88
2023-04-19T23:19:38.861Z,99496.34
2023-04-19T23:22:05.853Z,99489.09
2023-04-19T23:24:32.651Z,99496.94
2023-04-19T23:26:59.365Z,99506.47
2023-04-19T23:29:26.158Z,99500.41
2023-04-19T23:31:52.874Z,99494.31
2023-04-19T23:34:19.709Z,99473.44
2023-04-19T23:36:46.453Z,99504.72
2023-04-19T23:39:13.163Z,99483.06
2023-04-19T23:41:39.954Z,99489.22
2023-04-19T23:44:06.570Z,99481.00
2023-04-19T23:46:33.275Z,99481.06
2023-04-19T23:48:59.920Z,99474.78
2023-04-19T23:51:26.572Z,99451.06
2023-04-19T23:53:53.228Z,99459.91
2023-04-19T23:56:19.864Z,99456.19
2023-04-19T23:58:46.589Z,99471.09
